Annandale, Minnesota
Current Conditions -  °F | °C
As of 7:35 PM on Friday 19 Dec 2014 (Local Time) from KMGG Reporting Station
Haze Haze  
Wind Chill: -4°   Ceiling: 800
Heat Index: -1°   Visibility: 5mi
Dew Point: -2°   Wind: 6mph
Humidity: 94%   Direction: 130°SE
Pressure: 30.16"   Gusts: NA
Location:  45.26°N, 94.12°W
Report Text: KMGG 200135Z AUTO 13005KT 5SM BR OVC008 M01/M02 A3016 RMK AO2 T10071016
Loading
Personal Weather Stations






























Interactive Weather Map New forecast layout! Learn more

10-Day Weather Forecast

Advertisements
Track Severe Weather on mobile